sensor_id;sensor_type;location;lat;lon;timestamp;P1;durP1;ratioP1;P2;durP2;ratioP2
13425;SDS011;6785;57.918;12.530;2022-12-20T00:00:52;1.27;;;1.17;;
13425;SDS011;6785;57.918;12.530;2022-12-20T00:03:19;1.33;;;1.20;;
13425;SDS011;6785;57.918;12.530;2022-12-20T00:05:47;1.40;;;1.30;;
13425;SDS011;6785;57.918;12.530;2022-12-20T00:08:14;1.40;;;1.30;;
13425;SDS011;6785;57.918;12.530;2022-12-20T00:10:42;1.20;;;1.10;;
13425;SDS011;6785;57.918;12.530;2022-12-20T00:13:11;1.10;;;1.00;;
13425;SDS011;6785;57.918;12.530;2022-12-20T00:15:38;1.37;;;1.27;;
13425;SDS011;6785;57.918;12.530;2022-12-20T00:18:05;1.20;;;1.10;;
13425;SDS011;6785;57.918;12.530;2022-12-20T00:20:31;1.10;;;1.10;;
13425;SDS011;6785;57.918;12.530;2022-12-20T00:23:00;1.20;;;1.10;;
13425;SDS011;6785;57.918;12.530;2022-12-20T00:25:27;1.30;;;1.20;;
13425;SDS011;6785;57.918;12.530;2022-12-20T00:27:54;0.80;;;0.80;;
13425;SDS011;6785;57.918;12.530;2022-12-20T00:30:20;0.90;;;0.90;;
13425;SDS011;6785;57.918;12.530;2022-12-20T00:32:47;1.43;;;1.17;;
13425;SDS011;6785;57.918;12.530;2022-12-20T00:35:14;0.70;;;0.70;;
13425;SDS011;6785;57.918;12.530;2022-12-20T00:37:41;0.80;;;0.80;;
13425;SDS011;6785;57.918;12.530;2022-12-20T00:40:09;0.87;;;0.80;;
13425;SDS011;6785;57.918;12.530;2022-12-20T00:42:36;1.00;;;1.00;;
13425;SDS011;6785;57.918;12.530;2022-12-20T00:45:03;0.60;;;0.60;;
13425;SDS011;6785;57.918;12.530;2022-12-20T00:47:30;0.97;;;0.90;;
13425;SDS011;6785;57.918;12.530;2022-12-20T00:49:57;1.00;;;0.90;;
13425;SDS011;6785;57.918;12.530;2022-12-20T00:52:24;1.00;;;0.90;;
13425;SDS011;6785;57.918;12.530;2022-12-20T00:54:50;0.60;;;0.60;;
13425;SDS011;6785;57.918;12.530;2022-12-20T00:57:18;0.80;;;0.80;;
13425;SDS011;6785;57.918;12.530;2022-12-20T00:59:45;1.43;;;0.80;;
13425;SDS011;6785;57.918;12.530;2022-12-20T01:02:12;1.67;;;1.00;;
13425;SDS011;6785;57.918;12.530;2022-12-20T01:04:39;0.60;;;0.60;;
13425;SDS011;6785;57.918;12.530;2022-12-20T01:07:05;0.97;;;0.70;;
13425;SDS011;6785;57.918;12.530;2022-12-20T01:09:32;0.50;;;0.50;;
13425;SDS011;6785;57.918;12.530;2022-12-20T01:11:59;0.77;;;0.70;;
13425;SDS011;6785;57.918;12.530;2022-12-20T01:14:27;0.80;;;0.80;;
13425;SDS011;6785;57.918;12.530;2022-12-20T01:16:54;0.43;;;0.43;;
13425;SDS011;6785;57.918;12.530;2022-12-20T01:19:20;0.70;;;0.70;;
13425;SDS011;6785;57.918;12.530;2022-12-20T01:21:47;0.83;;;0.83;;
13425;SDS011;6785;57.918;12.530;2022-12-20T01:24:15;0.60;;;0.60;;
13425;SDS011;6785;57.918;12.530;2022-12-20T01:26:42;1.50;;;0.90;;
13425;SDS011;6785;57.918;12.530;2022-12-20T01:29:10;0.60;;;0.60;;
13425;SDS011;6785;57.918;12.530;2022-12-20T01:31:39;0.73;;;0.73;;
13425;SDS011;6785;57.918;12.530;2022-12-20T01:34:06;0.77;;;0.77;;
13425;SDS011;6785;57.918;12.530;2022-12-20T01:36:33;0.90;;;0.90;;
13425;SDS011;6785;57.918;12.530;2022-12-20T01:39:02;1.97;;;1.10;;
13425;SDS011;6785;57.918;12.530;2022-12-20T01:41:33;0.87;;;0.87;;
13425;SDS011;6785;57.918;12.530;2022-12-20T01:44:01;1.03;;;0.90;;
13425;SDS011;6785;57.918;12.530;2022-12-20T01:46:30;1.07;;;0.93;;
13425;SDS011;6785;57.918;12.530;2022-12-20T01:49:00;1.10;;;1.00;;
13425;SDS011;6785;57.918;12.530;2022-12-20T01:51:31;0.87;;;0.83;;
13425;SDS011;6785;57.918;12.530;2022-12-20T01:54:02;1.23;;;1.13;;
13425;SDS011;6785;57.918;12.530;2022-12-20T01:56:32;1.20;;;1.10;;
13425;SDS011;6785;57.918;12.530;2022-12-20T01:59:00;1.30;;;1.20;;
13425;SDS011;6785;57.918;12.530;2022-12-20T02:01:27;2.70;;;1.30;;
13425;SDS011;6785;57.918;12.530;2022-12-20T02:03:54;1.57;;;1.17;;
13425;SDS011;6785;57.918;12.530;2022-12-20T02:06:23;1.97;;;1.37;;
13425;SDS011;6785;57.918;12.530;2022-12-20T02:08:52;3.43;;;1.60;;
13425;SDS011;6785;57.918;12.530;2022-12-20T02:11:23;2.33;;;1.40;;
13425;SDS011;6785;57.918;12.530;2022-12-20T02:14:11;1.40;;;1.30;;
13425;SDS011;6785;57.918;12.530;2022-12-20T02:16:48;1.83;;;1.47;;
13425;SDS011;6785;57.918;12.530;2022-12-20T02:19:33;2.43;;;1.17;;
13425;SDS011;6785;57.918;12.530;2022-12-20T02:22:18;1.33;;;1.20;;
13425;SDS011;6785;57.918;12.530;2022-12-20T02:24:56;2.27;;;1.20;;
13425;SDS011;6785;57.918;12.530;2022-12-20T02:27:54;1.23;;;1.13;;
13425;SDS011;6785;57.918;12.530;2022-12-20T02:30:28;1.20;;;1.10;;
13425;SDS011;6785;57.918;12.530;2022-12-20T02:32:59;2.07;;;1.10;;
13425;SDS011;6785;57.918;12.530;2022-12-20T02:35:30;1.33;;;1.23;;
13425;SDS011;6785;57.918;12.530;2022-12-20T02:38:02;1.10;;;0.90;;
13425;SDS011;6785;57.918;12.530;2022-12-20T02:40:31;0.83;;;0.83;;
13425;SDS011;6785;57.918;12.530;2022-12-20T02:43:03;0.60;;;0.60;;
13425;SDS011;6785;57.918;12.530;2022-12-20T02:45:53;0.60;;;0.60;;
13425;SDS011;6785;57.918;12.530;2022-12-20T02:48:21;0.77;;;0.77;;
13425;SDS011;6785;57.918;12.530;2022-12-20T02:50:51;0.87;;;0.87;;
13425;SDS011;6785;57.918;12.530;2022-12-20T02:53:21;0.70;;;0.70;;
13425;SDS011;6785;57.918;12.530;2022-12-20T02:55:49;0.63;;;0.60;;
13425;SDS011;6785;57.918;12.530;2022-12-20T02:58:22;0.70;;;0.70;;
13425;SDS011;6785;57.918;12.530;2022-12-20T03:00:56;0.70;;;0.70;;
13425;SDS011;6785;57.918;12.530;2022-12-20T03:03:28;0.60;;;0.60;;
13425;SDS011;6785;57.918;12.530;2022-12-20T03:05:55;0.67;;;0.63;;
13425;SDS011;6785;57.918;12.530;2022-12-20T03:08:22;0.50;;;0.50;;
13425;SDS011;6785;57.918;12.530;2022-12-20T03:10:50;0.70;;;0.70;;
13425;SDS011;6785;57.918;12.530;2022-12-20T03:13:18;0.70;;;0.70;;
13425;SDS011;6785;57.918;12.530;2022-12-20T03:15:46;0.80;;;0.80;;
13425;SDS011;6785;57.918;12.530;2022-12-20T03:18:14;0.70;;;0.70;;
13425;SDS011;6785;57.918;12.530;2022-12-20T03:20:41;0.53;;;0.53;;
13425;SDS011;6785;57.918;12.530;2022-12-20T03:23:08;1.20;;;0.60;;
13425;SDS011;6785;57.918;12.530;2022-12-20T03:25:34;2.37;;;1.10;;
13425;SDS011;6785;57.918;12.530;2022-12-20T03:28:01;1.60;;;0.77;;
13425;SDS011;6785;57.918;12.530;2022-12-20T03:30:28;1.37;;;0.80;;
13425;SDS011;6785;57.918;12.530;2022-12-20T03:32:55;0.70;;;0.70;;
13425;SDS011;6785;57.918;12.530;2022-12-20T03:35:23;0.70;;;0.70;;
13425;SDS011;6785;57.918;12.530;2022-12-20T03:37:50;0.93;;;0.87;;
13425;SDS011;6785;57.918;12.530;2022-12-20T03:40:16;0.80;;;0.80;;
13425;SDS011;6785;57.918;12.530;2022-12-20T03:42:43;1.00;;;0.90;;
13425;SDS011;6785;57.918;12.530;2022-12-20T03:45:10;1.60;;;1.00;;
13425;SDS011;6785;57.918;12.530;2022-12-20T03:47:37;0.70;;;0.70;;
13425;SDS011;6785;57.918;12.530;2022-12-20T03:50:04;0.90;;;0.90;;
13425;SDS011;6785;57.918;12.530;2022-12-20T03:52:33;1.13;;;0.90;;
13425;SDS011;6785;57.918;12.530;2022-12-20T03:55:00;0.83;;;0.83;;
13425;SDS011;6785;57.918;12.530;2022-12-20T03:57:27;0.50;;;0.50;;
13425;SDS011;6785;57.918;12.530;2022-12-20T03:59:54;0.70;;;0.70;;
13425;SDS011;6785;57.918;12.530;2022-12-20T04:02:21;0.90;;;0.80;;
13425;SDS011;6785;57.918;12.530;2022-12-20T04:04:48;0.77;;;0.77;;
13425;SDS011;6785;57.918;12.530;2022-12-20T04:07:15;0.70;;;0.70;;
13425;SDS011;6785;57.918;12.530;2022-12-20T04:09:43;1.20;;;1.10;;
13425;SDS011;6785;57.918;12.530;2022-12-20T04:12:09;1.33;;;1.20;;
13425;SDS011;6785;57.918;12.530;2022-12-20T04:14:36;1.40;;;0.90;;
13425;SDS011;6785;57.918;12.530;2022-12-20T04:17:03;1.30;;;1.13;;
13425;SDS011;6785;57.918;12.530;2022-12-20T04:19:30;1.23;;;0.80;;
13425;SDS011;6785;57.918;12.530;2022-12-20T04:21:56;1.40;;;1.20;;
13425;SDS011;6785;57.918;12.530;2022-12-20T04:24:23;1.80;;;1.27;;
13425;SDS011;6785;57.918;12.530;2022-12-20T04:26:51;2.90;;;1.10;;
13425;SDS011;6785;57.918;12.530;2022-12-20T04:29:18;1.47;;;1.00;;
13425;SDS011;6785;57.918;12.530;2022-12-20T04:31:45;1.23;;;1.10;;
13425;SDS011;6785;57.918;12.530;2022-12-20T04:34:12;1.40;;;1.20;;
13425;SDS011;6785;57.918;12.530;2022-12-20T04:36:38;2.03;;;1.20;;
13425;SDS011;6785;57.918;12.530;2022-12-20T04:39:05;3.20;;;1.20;;
13425;SDS011;6785;57.918;12.530;2022-12-20T04:41:32;1.37;;;1.27;;
13425;SDS011;6785;57.918;12.530;2022-12-20T04:44:00;1.90;;;1.27;;
13425;SDS011;6785;57.918;12.530;2022-12-20T04:46:27;3.80;;;1.53;;
13425;SDS011;6785;57.918;12.530;2022-12-20T04:48:53;2.77;;;1.60;;
13425;SDS011;6785;57.918;12.530;2022-12-20T04:51:20;2.87;;;1.60;;
13425;SDS011;6785;57.918;12.530;2022-12-20T04:53:47;3.13;;;1.43;;
13425;SDS011;6785;57.918;12.530;2022-12-20T04:56:14;2.17;;;1.40;;
13425;SDS011;6785;57.918;12.530;2022-12-20T04:58:42;3.87;;;2.00;;
13425;SDS011;6785;57.918;12.530;2022-12-20T05:01:10;2.50;;;1.60;;
13425;SDS011;6785;57.918;12.530;2022-12-20T05:03:37;1.80;;;1.47;;
13425;SDS011;6785;57.918;12.530;2022-12-20T05:06:05;1.83;;;1.30;;
13425;SDS011;6785;57.918;12.530;2022-12-20T05:08:32;2.37;;;1.50;;
13425;SDS011;6785;57.918;12.530;2022-12-20T05:10:59;1.50;;;1.40;;
13425;SDS011;6785;57.918;12.530;2022-12-20T05:13:26;4.43;;;1.50;;
13425;SDS011;6785;57.918;12.530;2022-12-20T05:15:53;2.37;;;1.87;;
13425;SDS011;6785;57.918;12.530;2022-12-20T05:18:22;3.43;;;1.67;;
13425;SDS011;6785;57.918;12.530;2022-12-20T05:20:50;1.63;;;1.50;;
13425;SDS011;6785;57.918;12.530;2022-12-20T05:23:39;3.03;;;2.20;;
13425;SDS011;6785;57.918;12.530;2022-12-20T05:26:23;3.47;;;1.80;;
13425;SDS011;6785;57.918;12.530;2022-12-20T05:28:50;4.77;;;2.03;;
13425;SDS011;6785;57.918;12.530;2022-12-20T05:31:17;2.70;;;1.80;;
13425;SDS011;6785;57.918;12.530;2022-12-20T05:33:45;3.63;;;1.40;;
13425;SDS011;6785;57.918;12.530;2022-12-20T05:36:12;2.00;;;1.33;;
13425;SDS011;6785;57.918;12.530;2022-12-20T05:38:39;1.80;;;1.40;;
13425;SDS011;6785;57.918;12.530;2022-12-20T05:41:05;3.60;;;1.83;;
13425;SDS011;6785;57.918;12.530;2022-12-20T05:43:32;2.60;;;1.70;;
13425;SDS011;6785;57.918;12.530;2022-12-20T05:45:59;2.23;;;1.60;;
13425;SDS011;6785;57.918;12.530;2022-12-20T05:48:26;3.37;;;1.70;;
13425;SDS011;6785;57.918;12.530;2022-12-20T05:50:54;2.57;;;1.60;;
13425;SDS011;6785;57.918;12.530;2022-12-20T05:53:21;4.43;;;1.60;;
13425;SDS011;6785;57.918;12.530;2022-12-20T05:55:48;4.50;;;1.70;;
13425;SDS011;6785;57.918;12.530;2022-12-20T05:58:17;2.73;;;1.77;;
13425;SDS011;6785;57.918;12.530;2022-12-20T06:00:44;3.50;;;1.90;;
13425;SDS011;6785;57.918;12.530;2022-12-20T06:03:11;7.70;;;1.90;;
13425;SDS011;6785;57.918;12.530;2022-12-20T06:05:39;2.90;;;2.00;;
13425;SDS011;6785;57.918;12.530;2022-12-20T06:08:09;5.33;;;2.20;;
13425;SDS011;6785;57.918;12.530;2022-12-20T06:10:36;3.00;;;2.00;;
13425;SDS011;6785;57.918;12.530;2022-12-20T06:13:05;6.47;;;2.37;;
13425;SDS011;6785;57.918;12.530;2022-12-20T06:15:32;3.47;;;2.17;;
13425;SDS011;6785;57.918;12.530;2022-12-20T06:17:59;8.03;;;2.40;;
13425;SDS011;6785;57.918;12.530;2022-12-20T06:20:25;7.47;;;2.70;;
13425;SDS011;6785;57.918;12.530;2022-12-20T06:22:52;10.87;;;2.90;;
13425;SDS011;6785;57.918;12.530;2022-12-20T06:25:20;5.90;;;3.13;;
13425;SDS011;6785;57.918;12.530;2022-12-20T06:27:47;4.67;;;2.70;;
13425;SDS011;6785;57.918;12.530;2022-12-20T06:30:14;7.40;;;2.93;;
13425;SDS011;6785;57.918;12.530;2022-12-20T06:32:41;7.23;;;3.00;;
13425;SDS011;6785;57.918;12.530;2022-12-20T06:35:08;9.63;;;3.00;;
13425;SDS011;6785;57.918;12.530;2022-12-20T06:37:34;5.67;;;3.33;;
13425;SDS011;6785;57.918;12.530;2022-12-20T06:40:02;8.07;;;3.33;;
13425;SDS011;6785;57.918;12.530;2022-12-20T06:42:30;68.50;;;7.77;;
13425;SDS011;6785;57.918;12.530;2022-12-20T06:44:57;12.63;;;4.00;;
13425;SDS011;6785;57.918;12.530;2022-12-20T06:47:24;13.73;;;3.97;;
13425;SDS011;6785;57.918;12.530;2022-12-20T06:49:51;14.03;;;5.07;;
13425;SDS011;6785;57.918;12.530;2022-12-20T06:52:17;14.07;;;4.77;;
13425;SDS011;6785;57.918;12.530;2022-12-20T06:54:44;9.93;;;4.60;;
13425;SDS011;6785;57.918;12.530;2022-12-20T06:57:11;22.40;;;6.63;;
13425;SDS011;6785;57.918;12.530;2022-12-20T06:59:39;16.47;;;5.53;;
13425;SDS011;6785;57.918;12.530;2022-12-20T07:02:05;32.13;;;6.63;;
13425;SDS011;6785;57.918;12.530;2022-12-20T07:04:32;24.47;;;6.70;;
13425;SDS011;6785;57.918;12.530;2022-12-20T07:06:59;25.60;;;6.23;;
13425;SDS011;6785;57.918;12.530;2022-12-20T07:09:25;25.33;;;7.10;;
13425;SDS011;6785;57.918;12.530;2022-12-20T07:11:52;35.27;;;8.10;;
13425;SDS011;6785;57.918;12.530;2022-12-20T07:14:19;33.20;;;7.67;;
13425;SDS011;6785;57.918;12.530;2022-12-20T07:16:47;34.93;;;8.37;;
13425;SDS011;6785;57.918;12.530;2022-12-20T07:19:14;27.83;;;7.47;;
13425;SDS011;6785;57.918;12.530;2022-12-20T07:21:41;32.63;;;8.57;;
13425;SDS011;6785;57.918;12.530;2022-12-20T07:24:08;43.87;;;9.63;;
13425;SDS011;6785;57.918;12.530;2022-12-20T07:26:35;26.00;;;8.13;;
13425;SDS011;6785;57.918;12.530;2022-12-20T07:29:02;43.50;;;9.77;;
13425;SDS011;6785;57.918;12.530;2022-12-20T07:31:30;35.57;;;9.67;;
13425;SDS011;6785;57.918;12.530;2022-12-20T07:33:58;66.70;;;12.40;;
13425;SDS011;6785;57.918;12.530;2022-12-20T07:36:25;41.00;;;10.03;;
13425;SDS011;6785;57.918;12.530;2022-12-20T07:38:51;47.07;;;10.07;;
13425;SDS011;6785;57.918;12.530;2022-12-20T07:41:18;54.23;;;11.10;;
13425;SDS011;6785;57.918;12.530;2022-12-20T07:43:45;180.63;;;18.83;;
13425;SDS011;6785;57.918;12.530;2022-12-20T07:46:12;63.50;;;12.10;;
13425;SDS011;6785;57.918;12.530;2022-12-20T07:48:39;47.90;;;11.67;;
13425;SDS011;6785;57.918;12.530;2022-12-20T07:51:08;54.43;;;11.97;;
13425;SDS011;6785;57.918;12.530;2022-12-20T07:53:38;234.10;;;25.17;;
13425;SDS011;6785;57.918;12.530;2022-12-20T07:56:09;61.30;;;12.70;;
13425;SDS011;6785;57.918;12.530;2022-12-20T07:58:37;130.97;;;15.93;;
13425;SDS011;6785;57.918;12.530;2022-12-20T08:01:05;68.00;;;13.17;;
13425;SDS011;6785;57.918;12.530;2022-12-20T08:03:35;799.43;;;68.53;;
13425;SDS011;6785;57.918;12.530;2022-12-20T08:06:07;37.87;;;11.37;;
13425;SDS011;6785;57.918;12.530;2022-12-20T08:08:35;51.87;;;11.53;;
13425;SDS011;6785;57.918;12.530;2022-12-20T08:11:05;63.67;;;12.47;;
13425;SDS011;6785;57.918;12.530;2022-12-20T08:13:33;87.97;;;13.80;;
13425;SDS011;6785;57.918;12.530;2022-12-20T08:16:00;94.37;;;14.23;;
13425;SDS011;6785;57.918;12.530;2022-12-20T08:18:27;95.80;;;16.07;;
13425;SDS011;6785;57.918;12.530;2022-12-20T08:20:53;134.63;;;16.80;;
13425;SDS011;6785;57.918;12.530;2022-12-20T08:23:21;389.63;;;35.17;;
13425;SDS011;6785;57.918;12.530;2022-12-20T08:25:48;61.10;;;12.90;;
13425;SDS011;6785;57.918;12.530;2022-12-20T08:28:15;72.97;;;13.63;;
13425;SDS011;6785;57.918;12.530;2022-12-20T08:30:41;634.87;;;50.67;;
13425;SDS011;6785;57.918;12.530;2022-12-20T08:33:08;69.80;;;14.07;;
13425;SDS011;6785;57.918;12.530;2022-12-20T08:35:35;58.70;;;12.97;;
13425;SDS011;6785;57.918;12.530;2022-12-20T08:38:02;74.30;;;14.83;;
13425;SDS011;6785;57.918;12.530;2022-12-20T08:40:30;43.80;;;11.90;;
13425;SDS011;6785;57.918;12.530;2022-12-20T08:42:57;86.27;;;15.40;;
13425;SDS011;6785;57.918;12.530;2022-12-20T08:45:24;83.17;;;15.33;;
13425;SDS011;6785;57.918;12.530;2022-12-20T08:47:52;79.60;;;15.13;;
13425;SDS011;6785;57.918;12.530;2022-12-20T08:50:18;60.07;;;13.53;;
13425;SDS011;6785;57.918;12.530;2022-12-20T08:52:45;123.13;;;19.03;;
13425;SDS011;6785;57.918;12.530;2022-12-20T08:55:12;145.37;;;20.27;;
13425;SDS011;6785;57.918;12.530;2022-12-20T08:57:41;212.23;;;23.23;;
13425;SDS011;6785;57.918;12.530;2022-12-20T09:00:08;61.23;;;14.73;;
13425;SDS011;6785;57.918;12.530;2022-12-20T09:02:36;83.50;;;16.83;;
13425;SDS011;6785;57.918;12.530;2022-12-20T09:05:05;93.70;;;17.17;;
13425;SDS011;6785;57.918;12.530;2022-12-20T09:07:33;90.00;;;15.43;;
13425;SDS011;6785;57.918;12.530;2022-12-20T09:09:59;266.03;;;29.90;;
13425;SDS011;6785;57.918;12.530;2022-12-20T09:12:26;116.83;;;18.00;;
13425;SDS011;6785;57.918;12.530;2022-12-20T09:14:54;202.43;;;23.70;;
13425;SDS011;6785;57.918;12.530;2022-12-20T09:17:21;223.33;;;26.90;;
13425;SDS011;6785;57.918;12.530;2022-12-20T09:19:48;65.20;;;14.63;;
13425;SDS011;6785;57.918;12.530;2022-12-20T09:22:15;58.37;;;14.00;;
13425;SDS011;6785;57.918;12.530;2022-12-20T09:24:41;50.40;;;12.40;;
13425;SDS011;6785;57.918;12.530;2022-12-20T09:27:08;69.20;;;14.43;;
13425;SDS011;6785;57.918;12.530;2022-12-20T09:29:35;44.97;;;12.83;;
13425;SDS011;6785;57.918;12.530;2022-12-20T09:32:03;40.23;;;12.33;;
13425;SDS011;6785;57.918;12.530;2022-12-20T09:34:30;60.70;;;14.00;;
13425;SDS011;6785;57.918;12.530;2022-12-20T09:36:57;82.77;;;14.30;;
13425;SDS011;6785;57.918;12.530;2022-12-20T09:39:23;57.53;;;12.90;;
13425;SDS011;6785;57.918;12.530;2022-12-20T09:41:50;37.00;;;10.90;;
13425;SDS011;6785;57.918;12.530;2022-12-20T09:44:19;38.23;;;10.07;;
13425;SDS011;6785;57.918;12.530;2022-12-20T09:46:51;39.90;;;10.33;;
13425;SDS011;6785;57.918;12.530;2022-12-20T09:49:26;21.23;;;8.57;;
13425;SDS011;6785;57.918;12.530;2022-12-20T09:52:01;16.10;;;7.53;;
13425;SDS011;6785;57.918;12.530;2022-12-20T09:54:40;13.77;;;7.23;;
13425;SDS011;6785;57.918;12.530;2022-12-20T09:57:16;12.50;;;6.57;;
13425;SDS011;6785;57.918;12.530;2022-12-20T09:59:47;12.27;;;6.50;;
13425;SDS011;6785;57.918;12.530;2022-12-20T10:02:14;13.67;;;6.43;;
13425;SDS011;6785;57.918;12.530;2022-12-20T10:04:48;14.13;;;6.20;;
13425;SDS011;6785;57.918;12.530;2022-12-20T10:07:19;13.30;;;5.90;;
13425;SDS011;6785;57.918;12.530;2022-12-20T10:09:58;11.17;;;5.77;;
13425;SDS011;6785;57.918;12.530;2022-12-20T10:12:36;14.77;;;6.17;;
13425;SDS011;6785;57.918;12.530;2022-12-20T10:15:17;10.37;;;6.00;;
13425;SDS011;6785;57.918;12.530;2022-12-20T10:17:50;11.53;;;5.43;;
13425;SDS011;6785;57.918;12.530;2022-12-20T10:20:32;10.23;;;5.63;;
13425;SDS011;6785;57.918;12.530;2022-12-20T10:23:08;9.20;;;6.30;;
13425;SDS011;6785;57.918;12.530;2022-12-20T10:25:48;11.77;;;5.83;;
13425;SDS011;6785;57.918;12.530;2022-12-20T10:28:15;8.23;;;5.10;;
13425;SDS011;6785;57.918;12.530;2022-12-20T10:30:44;10.47;;;5.20;;
13425;SDS011;6785;57.918;12.530;2022-12-20T10:33:13;8.70;;;4.87;;
13425;SDS011;6785;57.918;12.530;2022-12-20T10:35:47;9.13;;;4.80;;
13425;SDS011;6785;57.918;12.530;2022-12-20T10:38:14;7.27;;;4.47;;
13425;SDS011;6785;57.918;12.530;2022-12-20T10:40:42;9.40;;;4.87;;
13425;SDS011;6785;57.918;12.530;2022-12-20T10:43:13;6.87;;;4.53;;
13425;SDS011;6785;57.918;12.530;2022-12-20T10:45:42;6.63;;;4.80;;
13425;SDS011;6785;57.918;12.530;2022-12-20T10:48:22;8.10;;;4.37;;
13425;SDS011;6785;57.918;12.530;2022-12-20T10:50:56;7.77;;;4.53;;
13425;SDS011;6785;57.918;12.530;2022-12-20T10:53:24;6.97;;;4.43;;
13425;SDS011;6785;57.918;12.530;2022-12-20T10:55:52;5.77;;;4.53;;
13425;SDS011;6785;57.918;12.530;2022-12-20T10:58:38;6.70;;;4.57;;
13425;SDS011;6785;57.918;12.530;2022-12-20T11:01:09;5.63;;;4.33;;
13425;SDS011;6785;57.918;12.530;2022-12-20T11:03:50;8.20;;;4.27;;
13425;SDS011;6785;57.918;12.530;2022-12-20T11:06:21;6.33;;;3.97;;
13425;SDS011;6785;57.918;12.530;2022-12-20T11:08:49;4.50;;;3.50;;
13425;SDS011;6785;57.918;12.530;2022-12-20T11:11:17;3.97;;;3.40;;
13425;SDS011;6785;57.918;12.530;2022-12-20T11:13:46;5.07;;;3.80;;
13425;SDS011;6785;57.918;12.530;2022-12-20T11:16:21;3.63;;;3.10;;
13425;SDS011;6785;57.918;12.530;2022-12-20T11:18:53;3.47;;;3.10;;
13425;SDS011;6785;57.918;12.530;2022-12-20T11:21:31;3.50;;;3.07;;
13425;SDS011;6785;57.918;12.530;2022-12-20T11:24:07;4.20;;;3.47;;
13425;SDS011;6785;57.918;12.530;2022-12-20T11:26:40;3.70;;;2.97;;
13425;SDS011;6785;57.918;12.530;2022-12-20T11:29:24;3.47;;;2.67;;
13425;SDS011;6785;57.918;12.530;2022-12-20T11:32:10;3.70;;;2.90;;
13425;SDS011;6785;57.918;12.530;2022-12-20T11:34:46;3.93;;;2.97;;
13425;SDS011;6785;57.918;12.530;2022-12-20T11:37:24;3.53;;;2.70;;
13425;SDS011;6785;57.918;12.530;2022-12-20T11:39:58;3.53;;;2.80;;
13425;SDS011;6785;57.918;12.530;2022-12-20T11:42:35;3.17;;;2.70;;
13425;SDS011;6785;57.918;12.530;2022-12-20T11:45:13;4.57;;;2.70;;
13425;SDS011;6785;57.918;12.530;2022-12-20T11:47:55;3.70;;;2.80;;
13425;SDS011;6785;57.918;12.530;2022-12-20T11:50:49;2.70;;;2.40;;
13425;SDS011;6785;57.918;12.530;2022-12-20T11:53:26;3.00;;;2.50;;
13425;SDS011;6785;57.918;12.530;2022-12-20T11:55:58;3.60;;;2.53;;
13425;SDS011;6785;57.918;12.530;2022-12-20T11:58:28;3.27;;;2.43;;
13425;SDS011;6785;57.918;12.530;2022-12-20T12:00:59;2.90;;;2.60;;
13425;SDS011;6785;57.918;12.530;2022-12-20T12:03:31;2.50;;;2.30;;
13425;SDS011;6785;57.918;12.530;2022-12-20T12:06:01;2.90;;;2.20;;
13425;SDS011;6785;57.918;12.530;2022-12-20T12:08:33;2.20;;;1.93;;
13425;SDS011;6785;57.918;12.530;2022-12-20T12:11:07;2.17;;;1.97;;
13425;SDS011;6785;57.918;12.530;2022-12-20T12:13:39;1.63;;;1.53;;
13425;SDS011;6785;57.918;12.530;2022-12-20T12:16:08;1.53;;;1.43;;
13425;SDS011;6785;57.918;12.530;2022-12-20T12:18:37;1.67;;;1.57;;
13425;SDS011;6785;57.918;12.530;2022-12-20T12:21:07;1.50;;;1.40;;
13425;SDS011;6785;57.918;12.530;2022-12-20T12:23:44;1.70;;;1.60;;
13425;SDS011;6785;57.918;12.530;2022-12-20T12:26:18;1.37;;;1.27;;
13425;SDS011;6785;57.918;12.530;2022-12-20T12:28:47;2.13;;;1.40;;
13425;SDS011;6785;57.918;12.530;2022-12-20T12:31:20;1.40;;;1.30;;
13425;SDS011;6785;57.918;12.530;2022-12-20T12:33:53;1.40;;;1.30;;
13425;SDS011;6785;57.918;12.530;2022-12-20T12:36:37;1.03;;;1.03;;
13425;SDS011;6785;57.918;12.530;2022-12-20T12:39:35;1.40;;;1.30;;
13425;SDS011;6785;57.918;12.530;2022-12-20T12:42:25;1.20;;;1.20;;
13425;SDS011;6785;57.918;12.530;2022-12-20T12:45:09;1.20;;;1.10;;
13425;SDS011;6785;57.918;12.530;2022-12-20T12:47:42;1.43;;;1.33;;
13425;SDS011;6785;57.918;12.530;2022-12-20T12:50:15;1.50;;;1.40;;
13425;SDS011;6785;57.918;12.530;2022-12-20T12:52:48;1.60;;;1.50;;
13425;SDS011;6785;57.918;12.530;2022-12-20T12:55:37;1.60;;;1.50;;
13425;SDS011;6785;57.918;12.530;2022-12-20T13:01:04;1.57;;;1.47;;
13425;SDS011;6785;57.918;12.530;2022-12-20T13:03:37;1.60;;;1.50;;
13425;SDS011;6785;57.918;12.530;2022-12-20T13:09:16;1.43;;;1.33;;
13425;SDS011;6785;57.918;12.530;2022-12-20T13:11:47;1.97;;;1.40;;
13425;SDS011;6785;57.918;12.530;2022-12-20T13:20:14;1.97;;;1.57;;
13425;SDS011;6785;57.918;12.530;2022-12-20T13:25:44;2.57;;;1.43;;
13425;SDS011;6785;57.918;12.530;2022-12-20T13:31:29;2.27;;;1.90;;
13425;SDS011;6785;57.918;12.530;2022-12-20T13:33:59;2.27;;;1.90;;
13425;SDS011;6785;57.918;12.530;2022-12-20T13:36:36;2.00;;;1.80;;
13425;SDS011;6785;57.918;12.530;2022-12-20T13:39:27;2.93;;;1.73;;
13425;SDS011;6785;57.918;12.530;2022-12-20T13:42:06;2.40;;;2.20;;
13425;SDS011;6785;57.918;12.530;2022-12-20T13:44:43;2.70;;;1.90;;
13425;SDS011;6785;57.918;12.530;2022-12-20T13:47:13;1.77;;;1.67;;
13425;SDS011;6785;57.918;12.530;2022-12-20T13:49:58;2.03;;;1.80;;
13425;SDS011;6785;57.918;12.530;2022-12-20T13:52:27;1.83;;;1.70;;
13425;SDS011;6785;57.918;12.530;2022-12-20T13:54:57;1.80;;;1.70;;
13425;SDS011;6785;57.918;12.530;2022-12-20T13:57:30;1.80;;;1.70;;
13425;SDS011;6785;57.918;12.530;2022-12-20T14:00:11;1.73;;;1.63;;
13425;SDS011;6785;57.918;12.530;2022-12-20T14:02:41;1.60;;;1.50;;
13425;SDS011;6785;57.918;12.530;2022-12-20T14:05:13;1.60;;;1.50;;
13425;SDS011;6785;57.918;12.530;2022-12-20T14:07:44;1.60;;;1.50;;
13425;SDS011;6785;57.918;12.530;2022-12-20T14:10:15;1.90;;;1.67;;
13425;SDS011;6785;57.918;12.530;2022-12-20T14:12:45;1.60;;;1.50;;
13425;SDS011;6785;57.918;12.530;2022-12-20T14:15:24;1.70;;;1.60;;
13425;SDS011;6785;57.918;12.530;2022-12-20T14:17:52;1.70;;;1.60;;
13425;SDS011;6785;57.918;12.530;2022-12-20T14:20:21;1.30;;;1.20;;
13425;SDS011;6785;57.918;12.530;2022-12-20T14:22:52;2.80;;;1.30;;
13425;SDS011;6785;57.918;12.530;2022-12-20T14:25:25;1.30;;;1.20;;
13425;SDS011;6785;57.918;12.530;2022-12-20T14:27:56;1.03;;;1.03;;
13425;SDS011;6785;57.918;12.530;2022-12-20T14:30:29;1.20;;;1.10;;
13425;SDS011;6785;57.918;12.530;2022-12-20T14:32:57;1.03;;;0.93;;
13425;SDS011;6785;57.918;12.530;2022-12-20T14:35:24;1.23;;;1.13;;
13425;SDS011;6785;57.918;12.530;2022-12-20T14:37:52;1.17;;;1.07;;
13425;SDS011;6785;57.918;12.530;2022-12-20T14:40:20;1.20;;;1.10;;
13425;SDS011;6785;57.918;12.530;2022-12-20T14:42:47;0.80;;;0.80;;
13425;SDS011;6785;57.918;12.530;2022-12-20T14:45:16;0.87;;;0.87;;
13425;SDS011;6785;57.918;12.530;2022-12-20T14:47:53;2.20;;;1.10;;
13425;SDS011;6785;57.918;12.530;2022-12-20T14:50:23;0.90;;;0.90;;
13425;SDS011;6785;57.918;12.530;2022-12-20T14:52:56;0.80;;;0.80;;
13425;SDS011;6785;57.918;12.530;2022-12-20T14:55:24;1.17;;;1.03;;
13425;SDS011;6785;57.918;12.530;2022-12-20T14:57:57;1.40;;;1.00;;
13425;SDS011;6785;57.918;12.530;2022-12-20T15:00:25;2.27;;;1.30;;
13425;SDS011;6785;57.918;12.530;2022-12-20T15:02:59;1.93;;;0.90;;
13425;SDS011;6785;57.918;12.530;2022-12-20T15:05:34;1.20;;;1.10;;
13425;SDS011;6785;57.918;12.530;2022-12-20T15:08:09;1.43;;;0.83;;
13425;SDS011;6785;57.918;12.530;2022-12-20T15:10:41;0.87;;;0.87;;
13425;SDS011;6785;57.918;12.530;2022-12-20T15:13:12;0.90;;;0.83;;
13425;SDS011;6785;57.918;12.530;2022-12-20T15:15:41;2.00;;;1.00;;